Time;durP1;ratioP1;P1;durP2;ratioP2;P2;SDS_P1;SDS_P2;PMS_P1;PMS_P2;Temp;Humidity;BMP_temperature;BMP_pressure;BME280_temperature;BME280_humidity;BME280_pressure;Samples;Min_cycle;Max_cycle;Signal;HPM_P1;HPM_P2
2021/07/04 00:02:20;;;;;;;19.47;17.57;;;18.30;99.90;;;;;;5018389;28;20455;-62
2021/07/04 00:04:47;;;;;;;19.33;17.63;;;18.30;99.90;;;;;;5008474;28;20665;-62
2021/07/04 00:07:14;;;;;;;21.10;19.10;;;18.30;99.90;;;;;;4998604;28;20477;-62
2021/07/04 00:09:44;;;;;;;22.63;20.50;;;18.30;99.90;;;;;;5001098;28;20894;-62
2021/07/04 00:12:18;;;;;;;21.47;19.47;;;18.20;99.90;;;;;;5018633;28;20586;-62
2021/07/04 00:14:46;;;;;;;20.80;19.03;;;18.10;99.90;;;;;;5013121;28;20882;-62
2021/07/04 00:17:13;;;;;;;21.30;19.30;;;18.10;99.90;;;;;;5011862;28;20826;-62
2021/07/04 00:19:42;;;;;;;19.60;17.93;;;18.10;99.90;;;;;;5012041;28;20479;-62
2021/07/04 00:22:09;;;;;;;20.43;18.63;;;18.10;99.90;;;;;;5018775;28;20822;-62
2021/07/04 00:24:36;;;;;;;20.87;19.07;;;18.10;99.90;;;;;;5012755;28;20471;-62
2021/07/04 00:27:04;;;;;;;19.90;18.30;;;18.10;99.90;;;;;;4999233;28;20473;-62
2021/07/04 00:29:32;;;;;;;20.30;18.50;;;18.20;99.90;;;;;;5009256;28;20479;-62
2021/07/04 00:32:04;;;;;;;21.00;19.17;;;18.10;99.90;;;;;;4999451;28;20555;-62
2021/07/04 00:34:31;;;;;;;20.57;18.67;;;18.10;99.90;;;;;;4999415;28;20748;-62
2021/07/04 00:36:58;;;;;;;20.20;18.43;;;18.10;99.90;;;;;;4999245;28;20469;-62
2021/07/04 00:39:26;;;;;;;20.10;18.30;;;18.10;99.90;;;;;;4999379;28;20503;-63
2021/07/04 00:41:56;;;;;;;21.70;19.73;;;18.00;99.90;;;;;;4999277;28;20889;-63
2021/07/04 00:44:26;;;;;;;20.80;18.90;;;18.00;99.90;;;;;;5012157;28;20549;-63
2021/07/04 00:46:53;;;;;;;20.37;18.57;;;18.00;99.90;;;;;;4998081;28;20473;-63
2021/07/04 00:49:25;;;;;;;20.33;18.53;;;18.00;99.90;;;;;;4999546;28;20759;-63
2021/07/04 00:51:52;;;;;;;19.90;18.10;;;18.00;99.90;;;;;;5016313;28;20495;-63
2021/07/04 00:54:19;;;;;;;20.43;18.67;;;18.10;99.90;;;;;;5007569;28;20471;-63
2021/07/04 00:56:46;;;;;;;21.00;19.17;;;18.00;99.90;;;;;;4998597;28;21034;-63
2021/07/04 00:59:15;;;;;;;22.47;20.47;;;18.10;99.90;;;;;;5008898;28;20900;-63
2021/07/04 01:01:42;;;;;;;20.90;19.00;;;18.10;99.90;;;;;;5005100;28;20468;-63
2021/07/04 01:04:10;;;;;;;21.50;19.53;;;18.10;99.90;;;;;;5016386;28;21058;-63
2021/07/04 01:06:38;;;;;;;20.30;18.50;;;18.10;99.90;;;;;;4997269;28;20484;-63
2021/07/04 01:09:05;;;;;;;22.27;20.30;;;18.10;99.90;;;;;;5007370;28;20471;-63
2021/07/04 01:11:33;;;;;;;22.67;20.60;;;18.10;99.90;;;;;;5009339;28;20794;-63
2021/07/04 01:14:00;;;;;;;20.37;18.67;;;18.10;99.90;;;;;;4998473;28;20468;-63
2021/07/04 01:16:27;;;;;;;21.27;19.37;;;18.10;99.90;;;;;;5004733;28;20469;-63
2021/07/04 01:18:54;;;;;;;20.10;18.40;;;18.00;99.90;;;;;;4998549;28;20512;-63
2021/07/04 01:21:23;;;;;;;19.27;17.60;;;18.00;99.90;;;;;;4998804;28;20480;-63
2021/07/04 01:23:52;;;;;;;19.00;17.40;;;18.00;99.90;;;;;;4998701;28;20465;-63
2021/07/04 01:26:19;;;;;;;21.33;19.40;;;18.00;99.90;;;;;;4998345;28;20527;-63
2021/07/04 01:28:46;;;;;;;22.07;20.17;;;18.00;99.90;;;;;;4998542;28;20496;-63
2021/07/04 01:31:13;;;;;;;22.50;20.23;;;18.00;99.90;;;;;;4998484;28;20632;-63
2021/07/04 01:33:40;;;;;;;21.37;19.57;;;18.00;99.90;;;;;;4998359;28;20464;-61
2021/07/04 01:36:10;;;;;;;20.87;19.07;;;18.00;99.90;;;;;;5016101;28;20962;-62
2021/07/04 01:38:37;;;;;;;23.90;21.60;;;18.00;99.90;;;;;;5017001;28;20504;-62
2021/07/04 01:41:06;;;;;;;22.67;20.50;;;18.10;99.90;;;;;;5014052;28;20470;-62
2021/07/04 01:43:33;;;;;;;23.07;20.87;;;18.00;99.90;;;;;;5016838;28;20813;-62
2021/07/04 01:46:00;;;;;;;21.47;19.53;;;18.00;99.90;;;;;;5017326;28;20849;-62
2021/07/04 01:48:27;;;;;;;21.57;19.77;;;18.00;99.90;;;;;;5016814;28;20474;-62
2021/07/04 01:50:56;;;;;;;20.33;18.63;;;18.00;99.90;;;;;;5017237;28;20481;-62
2021/07/04 01:53:23;;;;;;;20.10;18.33;;;18.00;99.90;;;;;;5016390;28;20506;-62
2021/07/04 01:55:51;;;;;;;20.50;18.60;;;17.90;99.90;;;;;;5016854;28;20491;-62
2021/07/04 01:58:21;;;;;;;20.17;18.47;;;18.00;99.90;;;;;;5013124;28;21063;-61
2021/07/04 02:00:51;;;;;;;19.23;17.43;;;17.90;99.90;;;;;;5017337;28;20468;-62
2021/07/04 02:03:18;;;;;;;21.00;19.20;;;17.90;99.90;;;;;;4998231;28;20921;-62
2021/07/04 02:05:46;;;;;;;20.73;19.00;;;18.00;99.90;;;;;;4994042;28;20476;-62
2021/07/04 02:08:15;;;;;;;20.50;18.70;;;17.90;99.90;;;;;;4997578;28;20506;-63
2021/07/04 02:10:44;;;;;;;20.67;18.90;;;17.90;99.90;;;;;;4997762;28;20552;-63
2021/07/04 02:13:11;;;;;;;18.30;16.67;;;17.80;99.90;;;;;;4997760;28;20500;-63
2021/07/04 02:15:41;;;;;;;19.20;17.50;;;17.80;99.90;;;;;;4997813;28;20465;-63
2021/07/04 02:18:10;;;;;;;19.97;18.10;;;17.80;99.90;;;;;;4997363;28;20480;-63
2021/07/04 02:20:38;;;;;;;21.77;19.87;;;17.80;99.90;;;;;;4997789;28;20469;-63
2021/07/04 02:23:09;;;;;;;22.10;19.93;;;17.80;99.90;;;;;;4997497;28;20867;-63
2021/07/04 02:25:37;;;;;;;22.40;20.30;;;17.80;99.90;;;;;;4998391;28;20543;-63
2021/07/04 02:28:05;;;;;;;20.20;18.40;;;17.80;99.90;;;;;;4997850;28;20472;-63
2021/07/04 02:30:34;;;;;;;19.27;17.63;;;17.80;99.90;;;;;;5016334;28;20468;-63
2021/07/04 02:33:07;;;;;;;21.23;19.43;;;17.80;99.90;;;;;;5016287;28;20864;-63
2021/07/04 02:35:35;;;;;;;21.17;18.67;;;17.70;99.90;;;;;;5017001;28;20566;-63
2021/07/04 02:38:04;;;;;;;21.10;19.37;;;17.60;99.90;;;;;;5017034;28;20479;-63
2021/07/04 02:40:31;;;;;;;21.50;19.80;;;17.60;99.90;;;;;;5012858;28;20556;-63
2021/07/04 02:42:59;;;;;;;20.60;18.90;;;17.60;99.90;;;;;;5016509;28;20468;-64
2021/07/04 02:45:29;;;;;;;21.07;19.17;;;17.60;99.90;;;;;;5016692;28;20579;-64
2021/07/04 02:47:56;;;;;;;21.30;19.50;;;17.50;99.90;;;;;;5016633;28;20478;-64
2021/07/04 02:50:25;;;;;;;22.97;20.97;;;17.60;99.90;;;;;;5016173;28;20472;-64
2021/07/04 02:52:57;;;;;;;23.63;21.43;;;17.50;99.90;;;;;;5016299;28;20951;-63
2021/07/04 02:55:25;;;;;;;22.97;20.87;;;17.60;99.90;;;;;;5016766;28;20957;-63
2021/07/04 02:57:53;;;;;;;24.00;21.73;;;17.50;99.90;;;;;;5017059;28;20463;-64
2021/07/04 03:00:23;;;;;;;22.30;20.40;;;17.60;99.90;;;;;;5014083;28;20827;-64
2021/07/04 03:02:51;;;;;;;23.27;21.17;;;17.60;99.90;;;;;;5015711;28;20933;-63
2021/07/04 03:05:18;;;;;;;25.37;22.83;;;17.60;99.90;;;;;;4994286;28;20483;-64
2021/07/04 03:07:49;;;;;;;24.90;22.70;;;17.60;99.90;;;;;;4997638;28;20469;-64
2021/07/04 03:10:17;;;;;;;24.03;21.80;;;17.50;99.90;;;;;;4997595;28;20869;-63
2021/07/04 03:12:45;;;;;;;23.80;21.50;;;17.50;99.90;;;;;;5012346;28;20507;-64
2021/07/04 03:15:14;;;;;;;23.07;20.97;;;17.60;99.90;;;;;;5001004;28;20567;-64
2021/07/04 03:17:42;;;;;;;23.83;21.60;;;17.60;99.90;;;;;;5000989;28;20479;-64
2021/07/04 03:20:11;;;;;;;23.37;21.27;;;17.60;99.90;;;;;;5000673;28;20484;-64
2021/07/04 03:22:38;;;;;;;23.40;21.30;;;17.60;99.90;;;;;;5000612;28;20471;-64
2021/07/04 03:25:09;;;;;;;22.23;20.43;;;17.50;99.90;;;;;;5000996;28;20476;-64
2021/07/04 03:27:36;;;;;;;23.93;21.83;;;17.50;99.90;;;;;;5019619;28;20767;-64
2021/07/04 03:30:05;;;;;;;23.73;21.53;;;17.50;99.90;;;;;;5019743;28;20491;-64
2021/07/04 03:32:32;;;;;;;23.00;21.07;;;17.50;99.90;;;;;;5017216;28;20932;-64
2021/07/04 03:34:59;;;;;;;21.53;19.50;;;17.50;99.90;;;;;;5019488;28;20478;-64
2021/07/04 03:37:26;;;;;;;24.10;22.03;;;17.40;99.90;;;;;;5019979;28;20454;-64
2021/07/04 03:39:53;;;;;;;23.57;21.40;;;17.40;99.90;;;;;;5001104;28;20469;-64
2021/07/04 03:42:21;;;;;;;25.23;22.83;;;17.40;99.90;;;;;;5000444;28;20469;-64
2021/07/04 03:44:48;;;;;;;22.73;20.83;;;17.30;99.90;;;;;;5006147;28;20472;-64
2021/07/04 03:47:15;;;;;;;23.53;21.27;;;17.30;99.90;;;;;;5019189;28;20472;-66
2021/07/04 03:49:42;;;;;;;24.77;22.47;;;17.20;99.90;;;;;;5019847;28;20844;-66
2021/07/04 03:52:09;;;;;;;24.30;22.10;;;17.20;99.90;;;;;;5019363;28;20527;-66
2021/07/04 03:54:36;;;;;;;23.80;21.83;;;17.20;99.90;;;;;;5019595;28;20785;-66
2021/07/04 03:57:21;;;;;;;22.37;20.27;;;17.10;99.90;;;;;;5019059;28;20575;-66
2021/07/04 03:59:54;;;;;;;24.10;21.93;;;17.10;99.90;;;;;;5018224;28;20822;-66
2021/07/04 04:02:22;;;;;;;22.27;20.27;;;17.10;99.90;;;;;;5018730;28;20463;-66
2021/07/04 04:04:50;;;;;;;22.80;20.50;;;17.10;99.90;;;;;;4994496;28;20469;-66
2021/07/04 04:07:17;;;;;;;23.13;21.10;;;17.10;99.90;;;;;;5003643;28;20469;-66
2021/07/04 04:09:46;;;;;;;23.27;21.07;;;17.10;99.90;;;;;;5013311;28;20463;-66
2021/07/04 04:12:13;;;;;;;22.60;20.60;;;17.10;99.90;;;;;;5018531;28;20479;-66
2021/07/04 04:14:41;;;;;;;21.40;19.40;;;17.20;99.90;;;;;;5013951;28;20499;-66
2021/07/04 04:17:10;;;;;;;23.60;21.20;;;17.20;99.90;;;;;;5018776;28;20476;-66
2021/07/04 04:19:38;;;;;;;24.40;21.80;;;17.20;99.90;;;;;;5018877;28;20468;-65
2021/07/04 04:22:06;;;;;;;23.13;20.90;;;17.20;99.90;;;;;;5017037;28;20464;-65
2021/07/04 04:24:33;;;;;;;23.27;21.23;;;17.10;99.90;;;;;;5018570;28;20479;-65
2021/07/04 04:27:01;;;;;;;22.87;20.93;;;17.20;99.90;;;;;;5018398;28;20890;-65
2021/07/04 04:29:28;;;;;;;22.40;20.50;;;17.30;99.90;;;;;;5017808;28;20476;-65
2021/07/04 04:31:55;;;;;;;22.17;20.27;;;17.20;99.90;;;;;;4999526;28;20967;-65
2021/07/04 04:34:26;;;;;;;23.13;21.07;;;17.30;99.90;;;;;;4999136;28;20508;-66
2021/07/04 04:36:53;;;;;;;22.63;20.73;;;17.40;99.90;;;;;;4999545;28;20526;-65
2021/07/04 04:39:21;;;;;;;21.70;19.70;;;17.50;99.90;;;;;;4999498;28;20524;-66
2021/07/04 04:41:48;;;;;;;21.90;19.70;;;17.60;99.90;;;;;;4999732;28;20559;-66
2021/07/04 04:44:17;;;;;;;20.93;19.07;;;17.80;99.90;;;;;;5013607;28;20467;-66
2021/07/04 04:46:44;;;;;;;19.63;17.83;;;17.80;99.90;;;;;;5016670;28;20475;-66
2021/07/04 04:49:11;;;;;;;22.80;20.67;;;17.80;99.90;;;;;;4999432;28;20800;-66
2021/07/04 04:51:41;;;;;;;18.87;17.17;;;17.80;99.90;;;;;;4999198;28;20912;-66
2021/07/04 04:54:09;;;;;;;20.03;18.13;;;17.90;99.90;;;;;;5007814;28;20566;-66
2021/07/04 04:56:36;;;;;;;20.33;18.53;;;17.90;99.90;;;;;;5017541;28;20503;-66
2021/07/04 04:59:06;;;;;;;21.10;19.10;;;17.90;99.90;;;;;;5017871;28;20475;-66
2021/07/04 05:01:33;;;;;;;19.90;17.90;;;17.80;99.90;;;;;;5018018;28;20478;-66
2021/07/04 05:04:00;;;;;;;19.77;17.87;;;17.80;99.90;;;;;;5004017;28;20461;-66
2021/07/04 05:06:28;;;;;;;19.93;18.13;;;17.90;99.90;;;;;;5004723;28;20900;-66
2021/07/04 05:08:56;;;;;;;19.27;17.47;;;17.90;99.90;;;;;;5000764;28;20453;-66
2021/07/04 05:11:24;;;;;;;18.10;16.60;;;17.90;99.90;;;;;;5017754;28;20464;-66
2021/07/04 05:13:51;;;;;;;18.30;16.80;;;17.90;99.90;;;;;;5008989;28;20504;-66
2021/07/04 05:16:19;;;;;;;18.60;16.97;;;18.00;99.90;;;;;;4998571;28;20870;-66
2021/07/04 05:18:49;;;;;;;17.27;15.67;;;18.10;99.90;;;;;;4998707;28;20469;-66
2021/07/04 05:21:16;;;;;;;15.50;14.10;;;18.20;99.90;;;;;;5001288;28;20468;-66
2021/07/04 05:23:43;;;;;;;16.27;14.83;;;18.30;99.90;;;;;;5017775;28;20490;-66
2021/07/04 05:26:12;;;;;;;16.03;14.57;;;18.40;99.90;;;;;;5017679;28;20476;-66
2021/07/04 05:28:40;;;;;;;14.67;13.30;;;18.60;99.90;;;;;;5017139;28;20464;-66
2021/07/04 05:31:08;;;;;;;14.87;13.67;;;18.70;99.90;;;;;;5017418;28;20471;-66
2021/07/04 05:33:35;;;;;;;15.07;13.67;;;18.80;99.90;;;;;;5016319;28;20519;-66
2021/07/04 05:36:02;;;;;;;14.53;13.43;;;19.10;99.90;;;;;;4999550;28;20479;-66
2021/07/04 05:38:33;;;;;;;13.10;12.00;;;19.10;99.90;;;;;;4998101;28;20442;-66
2021/07/04 05:41:00;;;;;;;14.27;13.07;;;19.20;99.90;;;;;;5016878;28;20538;-66
2021/07/04 05:43:28;;;;;;;13.67;12.57;;;19.10;99.90;;;;;;5010614;28;20464;-65
2021/07/04 05:45:58;;;;;;;13.27;12.17;;;19.00;99.90;;;;;;5017553;28;20472;-66
2021/07/04 05:48:25;;;;;;;13.00;12.00;;;18.90;99.90;;;;;;5011049;28;20476;-66
2021/07/04 05:50:53;;;;;;;12.50;11.40;;;19.20;99.90;;;;;;4997861;28;20479;-66
2021/07/04 05:53:20;;;;;;;12.23;11.13;;;19.40;99.90;;;;;;4997853;28;20590;-66
2021/07/04 05:55:47;;;;;;;12.70;11.60;;;19.60;99.90;;;;;;5003977;28;20496;-65
2021/07/04 05:58:14;;;;;;;12.90;11.70;;;19.90;99.90;;;;;;5017412;28;20774;-66
2021/07/04 06:00:43;;;;;;;12.20;11.10;;;20.10;99.90;;;;;;5016647;28;20526;-66
2021/07/04 06:03:10;;;;;;;11.03;10.23;;;20.30;99.90;;;;;;5006973;28;20460;-66
2021/07/04 06:05:37;;;;;;;12.23;11.13;;;20.40;99.90;;;;;;5002976;28;20481;-66
2021/07/04 06:08:05;;;;;;;12.43;11.43;;;20.40;99.90;;;;;;5010241;28;20463;-66
2021/07/04 06:10:32;;;;;;;12.67;11.67;;;20.40;99.90;;;;;;4997551;28;20531;-66
2021/07/04 06:12:59;;;;;;;12.83;11.83;;;20.40;99.90;;;;;;4998116;28;20949;-65
2021/07/04 06:15:27;;;;;;;12.37;11.33;;;20.40;99.90;;;;;;5016765;28;20476;-65
2021/07/04 06:17:57;;;;;;;11.67;10.77;;;20.50;99.90;;;;;;5016808;28;20475;-65
2021/07/04 06:20:24;;;;;;;12.77;11.67;;;20.50;99.90;;;;;;5016661;28;20468;-65
2021/07/04 06:22:55;;;;;;;11.97;10.97;;;20.50;99.90;;;;;;4996729;28;20464;-65
2021/07/04 06:25:22;;;;;;;12.33;11.33;;;20.40;99.90;;;;;;5004393;28;20486;-65
2021/07/04 06:27:50;;;;;;;12.83;11.70;;;20.40;99.90;;;;;;5016878;28;20574;-65
2021/07/04 06:30:18;;;;;;;12.97;11.90;;;20.50;99.90;;;;;;5016439;28;20499;-65
2021/07/04 06:32:45;;;;;;;12.67;11.63;;;20.60;99.90;;;;;;5016341;28;20939;-66
2021/07/04 06:35:14;;;;;;;12.90;11.60;;;20.70;99.90;;;;;;5016490;28;20468;-65
2021/07/04 06:37:42;;;;;;;11.77;10.87;;;20.70;99.90;;;;;;5016942;28;20495;-65
2021/07/04 06:40:10;;;;;;;11.13;10.23;;;20.60;99.90;;;;;;5002524;28;20552;-65
2021/07/04 06:42:38;;;;;;;12.17;11.13;;;20.50;99.90;;;;;;5004818;28;20480;-65
2021/07/04 06:45:08;;;;;;;13.80;12.60;;;20.40;99.90;;;;;;5018202;28;20780;-64
2021/07/04 06:47:35;;;;;;;11.77;10.80;;;20.50;99.90;;;;;;5020412;28;20460;-64
2021/07/04 06:50:06;;;;;;;11.80;10.90;;;21.00;99.90;;;;;;5019932;28;20530;-64
2021/07/04 06:52:34;;;;;;;12.80;11.50;;;21.50;99.90;;;;;;5020301;28;20467;-65
2021/07/04 06:55:01;;;;;;;10.60;9.70;;;21.50;99.90;;;;;;5019906;28;20994;-64
2021/07/04 06:57:29;;;;;;;11.67;10.57;;;21.50;99.90;;;;;;5020244;28;20542;-64
2021/07/04 06:59:58;;;;;;;11.87;10.90;;;21.60;99.90;;;;;;5018316;28;20901;-63
2021/07/04 07:02:26;;;;;;;12.40;11.37;;;21.70;99.90;;;;;;5019908;28;20467;-63
2021/07/04 07:04:53;;;;;;;12.37;11.27;;;21.90;99.90;;;;;;5004060;28;20471;-63
2021/07/04 07:07:21;;;;;;;12.37;11.17;;;22.20;99.90;;;;;;5006699;28;20554;-63
2021/07/04 07:46:51;;;;;;;11.40;10.50;;;24.10;99.90;;;;;;4043722;23;20583;-59
2021/07/04 07:49:21;;;;;;;10.13;9.33;;;24.20;99.90;;;;;;4981322;28;20470;-57
2021/07/04 07:51:50;;;;;;;10.03;9.13;;;24.70;99.90;;;;;;4980738;28;20881;-58
2021/07/04 07:54:17;;;;;;;11.73;10.73;;;25.60;99.90;;;;;;4980995;28;20498;-58
2021/07/04 07:56:45;;;;;;;11.20;10.40;;;26.00;99.90;;;;;;4980659;28;20532;-57
2021/07/04 07:59:12;;;;;;;10.13;9.33;;;25.60;99.90;;;;;;4982857;28;20477;-58
2021/07/04 08:01:40;;;;;;;10.53;9.67;;;25.90;99.90;;;;;;4997231;28;20484;-58
2021/07/04 08:04:09;;;;;;;9.50;8.60;;;25.50;99.90;;;;;;4984922;28;20473;-57
2021/07/04 08:06:36;;;;;;;9.70;8.90;;;25.30;99.90;;;;;;4988551;28;20472;-58
2021/07/04 08:09:04;;;;;;;9.60;8.87;;;25.00;99.90;;;;;;4982229;28;21001;-58
2021/07/04 08:11:31;;;;;;;9.57;8.77;;;24.90;99.90;;;;;;4983178;28;20480;-53
2021/07/04 08:13:58;;;;;;;8.70;8.10;;;24.90;99.90;;;;;;4987623;28;20572;-54
2021/07/04 08:16:26;;;;;;;10.07;9.07;;;25.00;99.90;;;;;;4979443;28;20477;-54
2021/07/04 08:18:58;;;;;;;9.20;8.60;;;26.20;99.90;;;;;;4978602;28;20509;-51
2021/07/04 08:21:28;;;;;;;9.73;8.93;;;26.50;97.80;;;;;;4983005;28;20464;-55
2021/07/04 08:23:56;;;;;;;10.17;9.30;;;26.60;99.90;;;;;;4998595;28;20806;-53
2021/07/04 08:26:23;;;;;;;10.00;9.20;;;27.00;99.90;;;;;;4999577;28;20507;-50
2021/07/04 08:28:50;;;;;;;10.90;9.77;;;27.10;94.80;;;;;;4998270;28;20476;-55
2021/07/04 08:31:17;;;;;;;9.63;8.73;;;27.10;94.50;;;;;;4998031;28;20472;-50
2021/07/04 08:33:44;;;;;;;8.80;8.20;;;27.50;95.60;;;;;;4981423;28;20559;-55
2021/07/04 08:36:11;;;;;;;10.73;8.90;;;28.10;90.50;;;;;;4980129;28;20485;-56
2021/07/04 11:03:12;;;;;;;7.60;7.00;;;26.60;99.90;;;;;;2806642;23;20494;-58
2021/07/04 11:06:03;;;;;;;8.13;7.53;;;25.80;99.90;;;;;;5015932;28;20501;-64
2021/07/04 11:08:55;;;;;;;7.70;7.00;;;24.80;1.00;;;;;;5018097;28;20505;-64
2021/07/04 11:11:31;;;;;;;8.13;7.43;;;23.70;99.90;;;;;;5017882;28;20495;-63
2021/07/04 11:14:11;;;;;;;8.03;7.43;;;22.80;99.90;;;;;;5022597;28;20488;-63
2021/07/04 11:17:02;;;;;;;8.73;8.03;;;22.40;1.00;;;;;;5033576;28;20467;-62
2021/07/04 11:23:01;;;;;;;9.70;8.77;;;21.70;99.90;;;;;;5021701;28;20463;-62
2021/07/04 11:59:59;;;;;;;11.80;10.70;;;20.70;99.90;;;;;;3120011;22;20499;-64
2021/07/04 12:36:33;;;;;;;6.57;6.07;;;20.70;99.90;;;;;;2995064;22;20491;-63
2021/07/04 12:39:09;;;;;;;6.03;5.53;;;20.90;99.90;;;;;;5027724;28;20459;-63
2021/07/04 12:41:36;;;;;;;6.37;5.87;;;21.10;99.90;;;;;;5034761;28;20784;-64
2021/07/04 12:44:17;;;;;;;5.30;4.90;;;21.30;99.90;;;;;;5034833;28;20513;-65
2021/07/04 12:46:44;;;;;;;5.33;4.93;;;21.50;99.90;;;;;;5034551;28;20475;-65
2021/07/04 12:49:14;;;;;;;5.27;4.53;;;21.50;99.90;;;;;;5034804;28;20471;-64
2021/07/04 13:30:55;;;;;;;4.23;3.93;;;20.90;99.90;;;;;;2805496;22;20764;-63
2021/07/04 13:33:32;;;;;;;4.50;4.20;;;21.00;99.90;;;;;;5033282;28;20569;-64
2021/07/04 13:36:11;;;;;;;3.57;3.37;;;21.00;99.90;;;;;;5032884;28;20505;-64
2021/07/04 14:52:25;;;;;;;1.93;1.77;;;17.10;99.90;;;;;;3293337;23;20561;-64
2021/07/04 15:29:16;;;;;;;1.90;1.70;;;16.70;99.90;;;;;;4128023;22;20806;-66
2021/07/04 16:05:53;;;;;;;1.97;1.87;;;18.10;99.90;;;;;;4041916;22;20510;-64
2021/07/04 16:08:23;;;;;;;2.07;1.80;;;18.00;99.90;;;;;;5029672;28;20481;-64
2021/07/04 16:10:50;;;;;;;2.37;1.80;;;18.00;99.90;;;;;;5016793;28;20487;-64
2021/07/04 16:13:20;;;;;;;2.30;2.10;;;18.20;99.90;;;;;;5016306;28;20471;-64
2021/07/04 16:15:47;;;;;;;2.23;1.97;;;18.20;99.90;;;;;;5016012;28;20507;-64
2021/07/04 16:18:14;;;;;;;1.93;1.53;;;18.30;99.90;;;;;;5015128;28;20570;-64
2021/07/04 16:20:41;;;;;;;2.70;1.87;;;18.30;99.90;;;;;;5016193;28;20955;-64
2021/07/04 16:23:10;;;;;;;1.60;1.50;;;18.30;99.90;;;;;;5015963;28;20467;-64
2021/07/04 16:25:39;;;;;;;1.70;1.60;;;18.40;99.90;;;;;;5017129;28;20506;-63
2021/07/04 17:05:23;;;;;;;2.50;1.90;;;18.40;99.90;;;;;;5510263;22;20454;-64
2021/07/04 17:07:50;;;;;;;1.87;1.77;;;18.40;99.90;;;;;;5030063;28;20925;-64
2021/07/04 17:10:17;;;;;;;2.10;1.90;;;18.50;99.90;;;;;;5019991;28;20829;-63
2021/07/04 17:12:45;;;;;;;2.07;1.70;;;18.60;99.90;;;;;;5018382;28;20748;-63
2021/07/04 17:15:12;;;;;;;3.43;2.20;;;18.50;99.90;;;;;;5035095;28;20501;-64
2021/07/04 17:17:40;;;;;;;2.17;1.50;;;18.40;99.90;;;;;;5037500;28;20467;-63
2021/07/04 17:20:12;;;;;;;1.67;1.57;;;18.50;99.90;;;;;;5037601;28;20474;-63
2021/07/04 17:22:43;;;;;;;1.87;1.70;;;18.60;99.90;;;;;;5037127;28;20459;-63
2021/07/04 17:25:12;;;;;;;2.10;1.87;;;18.40;99.90;;;;;;5032023;28;20464;-63
2021/07/04 17:27:41;;;;;;;2.20;1.90;;;18.40;99.90;;;;;;5018253;28;20746;-63
2021/07/04 17:30:13;;;;;;;2.00;1.60;;;18.30;99.90;;;;;;5026140;28;20479;-63
2021/07/04 17:32:40;;;;;;;2.30;2.10;;;18.20;99.90;;;;;;5037004;28;20471;-63
2021/07/04 17:35:08;;;;;;;2.83;2.63;;;18.20;99.90;;;;;;5037111;28;20835;-62
2021/07/04 17:37:40;;;;;;;2.10;1.90;;;18.10;99.90;;;;;;5037044;28;20463;-63
2021/07/04 17:40:10;;;;;;;2.00;1.80;;;18.10;99.90;;;;;;5036820;28;20506;-63
2021/07/04 17:42:37;;;;;;;2.70;1.83;;;17.90;99.90;;;;;;5036910;28;20471;-62
2021/07/04 17:45:06;;;;;;;1.80;1.60;;;17.80;99.90;;;;;;5036797;28;20471;-62
2021/07/04 17:47:33;;;;;;;3.00;2.20;;;17.80;99.90;;;;;;5036665;28;20470;-62
2021/07/04 17:50:06;;;;;;;3.53;2.20;;;17.90;99.90;;;;;;5037266;28;20470;-62
2021/07/04 17:52:33;;;;;;;2.47;2.00;;;17.80;99.90;;;;;;5024213;28;20846;-63
2021/07/04 17:55:02;;;;;;;2.03;1.90;;;17.80;99.90;;;;;;5023965;28;20848;-62
2021/07/04 17:57:31;;;;;;;2.90;1.83;;;17.80;99.90;;;;;;5022345;28;20476;-62
2021/07/04 17:59:58;;;;;;;2.13;1.50;;;17.80;99.90;;;;;;5033187;28;20533;-62
2021/07/04 18:02:25;;;;;;;2.10;1.90;;;17.90;99.90;;;;;;5035940;28;20537;-62
2021/07/04 18:04:55;;;;;;;4.10;1.87;;;17.90;99.90;;;;;;5016627;28;20491;-62
2021/07/04 18:07:22;;;;;;;2.23;2.03;;;17.90;99.90;;;;;;5017071;28;20578;-62
2021/07/04 18:09:52;;;;;;;2.20;2.00;;;17.70;99.90;;;;;;5018161;28;20476;-61
2021/07/04 18:12:27;;;;;;;1.93;1.83;;;17.70;99.90;;;;;;5017109;28;20479;-61
2021/07/04 18:14:54;;;;;;;2.60;2.40;;;17.80;99.90;;;;;;5017513;28;20499;-61
2021/07/04 18:17:21;;;;;;;2.17;1.97;;;17.80;99.90;;;;;;5018111;28;20538;-61
2021/07/04 18:19:51;;;;;;;2.20;2.00;;;17.60;99.90;;;;;;5017835;28;20676;-62
2021/07/04 18:22:18;;;;;;;1.90;1.80;;;17.60;99.90;;;;;;5020367;28;20560;-61
2021/07/04 18:24:47;;;;;;;2.80;2.60;;;17.70;99.90;;;;;;5028619;28;20910;-61
2021/07/04 18:27:15;;;;;;;2.30;2.10;;;17.70;99.90;;;;;;5030863;28;20904;-61
2021/07/04 18:29:51;;;;;;;3.50;2.10;;;17.70;99.90;;;;;;5036052;28;20569;-61
2021/07/04 18:32:20;;;;;;;2.20;2.00;;;17.50;99.90;;;;;;5023871;28;20474;-61
2021/07/04 18:34:47;;;;;;;3.10;2.67;;;17.60;99.90;;;;;;5034132;28;20473;-61
2021/07/04 18:37:14;;;;;;;3.33;3.03;;;17.60;99.90;;;;;;5022996;28;20455;-62
2021/07/04 18:39:41;;;;;;;3.23;2.97;;;17.60;99.90;;;;;;5020896;28;20470;-62
2021/07/04 18:42:08;;;;;;;3.40;3.00;;;17.60;99.90;;;;;;5020982;28;20836;-61
2021/07/04 18:44:38;;;;;;;2.93;2.73;;;17.50;99.90;;;;;;5021379;28;20463;-61
2021/07/04 18:47:06;;;;;;;3.30;2.93;;;17.50;99.90;;;;;;5024457;28;20459;-62
2021/07/04 18:49:33;;;;;;;3.80;3.50;;;17.50;99.90;;;;;;5020936;28;20468;-61
2021/07/04 18:52:04;;;;;;;3.70;3.40;;;17.40;99.90;;;;;;5024585;28;20896;-61
2021/07/04 18:54:33;;;;;;;4.57;3.47;;;17.30;99.90;;;;;;5026970;28;20521;-61
2021/07/04 18:57:07;;;;;;;3.63;3.33;;;17.10;99.90;;;;;;5025841;28;20456;-61
2021/07/04 18:59:48;;;;;;;3.47;3.20;;;16.90;99.90;;;;;;5034532;28;20465;-61
2021/07/04 19:02:17;;;;;;;3.80;3.43;;;16.80;99.90;;;;;;5027101;28;20795;-61
2021/07/04 19:04:45;;;;;;;4.03;3.37;;;16.80;99.90;;;;;;5016130;28;20775;-61
2021/07/04 19:07:13;;;;;;;4.07;3.77;;;16.70;99.90;;;;;;5027626;28;20495;-61
2021/07/04 19:09:44;;;;;;;4.40;4.00;;;16.70;99.90;;;;;;5024270;28;20570;-61
2021/07/04 19:12:12;;;;;;;7.40;4.80;;;16.70;99.90;;;;;;5020895;28;20563;-61
2021/07/04 19:14:41;;;;;;;4.27;3.87;;;16.70;99.90;;;;;;5020307;28;20468;-61
2021/07/04 19:17:10;;;;;;;4.67;4.37;;;16.70;99.90;;;;;;5023677;28;20506;-60
2021/07/04 19:19:39;;;;;;;4.17;3.87;;;16.70;99.90;;;;;;5025897;28;20466;-61
2021/07/04 19:22:06;;;;;;;5.60;5.20;;;16.60;99.90;;;;;;5019789;28;20456;-61
2021/07/04 19:24:33;;;;;;;5.73;5.23;;;16.60;99.90;;;;;;5025649;28;20463;-61
2021/07/04 19:27:01;;;;;;;5.67;5.20;;;16.60;99.90;;;;;;5024332;28;20458;-61
2021/07/04 19:29:28;;;;;;;6.30;5.70;;;16.50;99.90;;;;;;5026889;28;20457;-61
2021/07/04 19:31:56;;;;;;;6.30;5.80;;;16.50;99.90;;;;;;5034582;28;20785;-61
2021/07/04 19:34:23;;;;;;;7.47;6.47;;;16.40;99.90;;;;;;5034522;28;20521;-61
2021/07/04 19:36:51;;;;;;;5.90;5.50;;;16.30;99.90;;;;;;5027069;28;20495;-61
2021/07/04 19:39:21;;;;;;;5.53;5.00;;;16.30;99.90;;;;;;5031807;28;20833;-61
2021/07/04 19:41:48;;;;;;;7.67;5.37;;;16.20;99.90;;;;;;5030013;28;20468;-61
2021/07/04 19:44:15;;;;;;;5.93;5.50;;;16.30;99.90;;;;;;5026185;28;20464;-61
2021/07/04 19:46:42;;;;;;;5.93;5.43;;;16.30;99.90;;;;;;5026659;28;20480;-61
2021/07/04 19:49:12;;;;;;;5.77;5.27;;;16.20;99.90;;;;;;5021495;28;20472;-61
2021/07/04 19:51:39;;;;;;;6.43;5.83;;;16.10;99.90;;;;;;5028828;28;20467;-61
2021/07/04 19:54:08;;;;;;;5.70;5.20;;;16.10;99.90;;;;;;5024782;28;20455;-61
2021/07/04 19:56:35;;;;;;;6.13;5.67;;;16.00;99.90;;;;;;5022507;28;20503;-62
2021/07/04 19:59:02;;;;;;;6.20;5.70;;;15.90;99.90;;;;;;5025267;28;20831;-62
2021/07/04 20:01:30;;;;;;;5.73;5.33;;;15.90;99.90;;;;;;5037389;28;20463;-61
2021/07/04 20:04:09;;;;;;;5.73;5.10;;;15.90;99.90;;;;;;5019211;28;20446;-61
2021/07/04 20:06:41;;;;;;;6.20;5.70;;;15.90;99.90;;;;;;5024644;28;20993;-62
2021/07/04 20:09:14;;;;;;;5.80;5.30;;;15.80;99.90;;;;;;5030414;28;20459;-62
2021/07/04 20:11:42;;;;;;;5.67;5.20;;;15.80;99.90;;;;;;5022915;28;20550;-62
2021/07/04 20:14:09;;;;;;;5.77;5.10;;;15.80;99.90;;;;;;5022555;28;20464;-62
2021/07/04 20:16:37;;;;;;;7.03;5.77;;;15.80;99.90;;;;;;5018747;28;20478;-61
2021/07/04 20:19:11;;;;;;;7.70;6.30;;;15.70;99.90;;;;;;5021840;28;20521;-62
2021/07/04 21:01:47;;;;;;;10.80;9.70;;;15.30;99.90;;;;;;5195835;22;20507;-63
2021/07/04 21:04:24;;;;;;;9.80;8.80;;;15.30;99.90;;;;;;5019566;28;20479;-63
2021/07/04 21:06:51;;;;;;;9.87;9.03;;;15.30;99.90;;;;;;5030691;28;20827;-62
2021/07/04 21:09:21;;;;;;;9.87;9.07;;;15.30;99.90;;;;;;5033035;28;20475;-63
2021/07/04 21:11:50;;;;;;;10.63;9.77;;;15.20;99.90;;;;;;5036716;28;20502;-61
2021/07/04 21:14:17;;;;;;;10.93;10.00;;;15.30;99.90;;;;;;5031108;28;20526;-61
2021/07/04 21:16:44;;;;;;;11.47;10.47;;;15.30;99.90;;;;;;5018203;28;20522;-63